createdAt,value
2019-06-01T00:01:36.537Z,14.90
2019-06-01T00:04:07.990Z,15.00
2019-06-01T00:06:39.232Z,15.00
2019-06-01T00:09:10.407Z,14.90
2019-06-01T00:11:43.277Z,14.80
2019-06-01T00:14:14.525Z,14.70
2019-06-01T00:16:46.012Z,14.70
2019-06-01T00:19:17.343Z,14.60
2019-06-01T00:21:49.445Z,14.60
2019-06-01T00:24:20.778Z,14.60
2019-06-01T00:26:52.170Z,14.60
2019-06-01T00:29:23.432Z,14.70
2019-06-01T00:31:54.685Z,14.60
2019-06-01T00:34:25.921Z,14.60
2019-06-01T00:36:57.170Z,14.50
2019-06-01T00:39:28.420Z,14.50
2019-06-01T00:41:59.673Z,14.50
2019-06-01T00:44:30.903Z,14.40
2019-06-01T00:47:02.106Z,14.40
2019-06-01T00:49:33.269Z,14.50
2019-06-01T00:52:05.515Z,14.40
2019-06-01T00:54:36.684Z,14.30
2019-06-01T00:57:08.930Z,14.30
2019-06-01T00:59:40.086Z,14.30
2019-06-01T01:02:11.442Z,14.30
2019-06-01T01:04:42.563Z,14.30
2019-06-01T01:07:13.742Z,14.30
2019-06-01T01:09:44.919Z,14.20
2019-06-01T01:12:16.086Z,14.20
2019-06-01T01:14:47.273Z,14.20
2019-06-01T01:17:18.419Z,14.20
2019-06-01T01:19:49.733Z,14.20
2019-06-01T01:22:20.830Z,14.10
2019-06-01T01:24:52.408Z,14.10
2019-06-01T01:27:23.624Z,14.10
2019-06-01T01:29:55.039Z,13.90
2019-06-01T01:32:26.307Z,13.90
2019-06-01T01:34:57.851Z,13.80
2019-06-01T01:37:29.015Z,13.80
2019-06-01T01:40:00.179Z,13.80
2019-06-01T01:42:31.354Z,13.80
2019-06-01T01:45:02.513Z,13.80
2019-06-01T01:47:33.779Z,13.70
2019-06-01T01:50:05.044Z,13.70
2019-06-01T01:52:36.246Z,13.70
2019-06-01T01:55:07.834Z,13.70
2019-06-01T01:57:38.983Z,13.70
2019-06-01T02:00:10.198Z,13.60
2019-06-01T02:02:41.422Z,13.60
2019-06-01T02:05:12.620Z,13.60
2019-06-01T02:07:43.806Z,13.60
2019-06-01T02:10:14.999Z,13.60
2019-06-01T02:12:46.177Z,13.50
2019-06-01T02:15:17.432Z,13.50
2019-06-01T02:17:48.641Z,13.50
2019-06-01T02:20:19.877Z,13.50
2019-06-01T02:22:51.045Z,13.50
2019-06-01T02:25:22.259Z,13.40
2019-06-01T02:27:53.480Z,13.40
2019-06-01T02:30:24.689Z,13.30
2019-06-01T02:32:56.429Z,13.30
2019-06-01T02:35:28.791Z,13.30
2019-06-01T02:38:00.425Z,13.20
2019-06-01T02:40:31.672Z,13.20
2019-06-01T02:43:04.328Z,13.20
2019-06-01T02:45:35.731Z,13.30
2019-06-01T02:48:07.594Z,13.30
2019-06-01T02:50:38.785Z,13.30
2019-06-01T02:53:09.966Z,13.40
2019-06-01T02:55:41.154Z,13.40
2019-06-01T02:58:12.414Z,13.40
2019-06-01T03:01:33.072Z,13.30
2019-06-01T03:04:08.305Z,13.30
2019-06-01T03:06:42.833Z,13.20
2019-06-01T03:09:14.007Z,13.20
2019-06-01T03:11:45.189Z,13.10
2019-06-01T03:14:16.368Z,13.10
2019-06-01T03:16:47.539Z,13.10
2019-06-01T03:19:18.733Z,13.10
2019-06-01T03:21:51.134Z,13.10
2019-06-01T03:24:26.136Z,13.10
2019-06-01T03:26:57.302Z,13.10
2019-06-01T03:29:31.365Z,13.10
2019-06-01T03:32:23.855Z,13.10
2019-06-01T03:34:35.384Z,13.20
2019-06-01T03:37:07.115Z,13.20
2019-06-01T03:39:38.392Z,13.20
2019-06-01T03:42:09.636Z,13.10
2019-06-01T03:44:40.822Z,13.10
2019-06-01T03:47:12.075Z,13.10
2019-06-01T03:49:43.299Z,13.10
2019-06-01T03:52:14.472Z,13.10
2019-06-01T03:54:48.578Z,13.10
2019-06-01T03:57:18.551Z,13.20
2019-06-01T03:59:50.127Z,13.20
2019-06-01T04:02:32.663Z,13.20
2019-06-01T04:04:54.171Z,13.20
2019-06-01T04:07:25.367Z,13.20
2019-06-01T04:09:56.552Z,13.20
2019-06-01T04:12:27.709Z,13.30
2019-06-01T04:14:58.894Z,13.30
2019-06-01T04:17:32.832Z,13.40
2019-06-01T04:20:03.923Z,13.50
2019-06-01T04:22:35.183Z,13.60
2019-06-01T04:25:08.192Z,13.60
2019-06-01T04:27:39.509Z,13.70
2019-06-01T04:30:11.477Z,13.80
2019-06-01T04:32:49.784Z,13.90
2019-06-01T04:35:15.701Z,14.00
2019-06-01T04:37:48.629Z,14.10
2019-06-01T04:40:19.893Z,14.30
2019-06-01T04:42:51.043Z,14.40
2019-06-01T04:45:22.212Z,14.40
2019-06-01T04:47:53.416Z,14.50
2019-06-01T04:50:24.591Z,14.60
2019-06-01T04:52:55.753Z,14.70
2019-06-01T04:55:26.947Z,14.80
2019-06-01T04:57:58.130Z,14.90
2019-06-01T05:00:29.308Z,15.00
2019-06-01T05:03:05.299Z,15.20
2019-06-01T05:05:33.417Z,15.30
2019-06-01T05:08:05.216Z,15.40
2019-06-01T05:10:36.447Z,15.40
2019-06-01T05:13:07.650Z,15.50
2019-06-01T05:15:38.832Z,15.60
2019-06-01T05:18:10.115Z,15.80
2019-06-01T05:20:42.185Z,16.00
2019-06-01T05:23:13.293Z,16.40
2019-06-01T05:25:44.476Z,17.40
2019-06-01T05:28:15.633Z,18.60
2019-06-01T05:30:47.889Z,19.90
2019-06-01T05:33:35.321Z,21.90
2019-06-01T05:35:51.942Z,23.10
2019-06-01T05:38:23.100Z,24.50
2019-06-01T05:40:54.277Z,25.90
2019-06-01T05:43:25.682Z,26.90
2019-06-01T05:45:56.879Z,26.70
2019-06-01T05:48:30.609Z,27.60
2019-06-01T05:51:01.073Z,28.50
2019-06-01T05:53:32.200Z,29.30
2019-06-01T05:56:03.468Z,29.90
2019-06-01T05:58:34.616Z,30.20
2019-06-01T06:01:05.832Z,30.40
2019-06-01T06:03:40.456Z,30.60
2019-06-01T06:06:09.883Z,30.90
2019-06-01T06:08:41.047Z,31.50
2019-06-01T06:11:12.905Z,32.10
2019-06-01T06:13:44.089Z,32.50
2019-06-01T06:16:15.755Z,32.10
2019-06-01T06:18:46.911Z,32.30
2019-06-01T06:21:18.594Z,32.20
2019-06-01T06:23:49.848Z,32.80
2019-06-01T06:26:22.713Z,33.10
2019-06-01T06:28:54.024Z,33.00
2019-06-01T06:31:25.207Z,32.30
2019-06-01T06:33:57.246Z,32.60
2019-06-01T06:36:28.514Z,33.40
2019-06-01T06:38:59.675Z,33.90
2019-06-01T06:41:30.857Z,33.90
2019-06-01T06:44:02.015Z,33.80
2019-06-01T06:46:33.180Z,33.70
2019-06-01T06:49:04.395Z,33.80
2019-06-01T06:51:35.537Z,33.60
2019-06-01T06:54:06.689Z,33.40
2019-06-01T06:56:37.909Z,33.60
2019-06-01T06:59:11.800Z,34.20
2019-06-01T07:01:43.103Z,35.00
2019-06-01T07:04:14.288Z,35.00
2019-06-01T07:06:45.500Z,35.20
2019-06-01T07:09:17.869Z,35.30
2019-06-01T07:11:49.337Z,35.30
2019-06-01T07:14:21.258Z,35.20
2019-06-01T07:16:52.534Z,35.60
2019-06-01T07:19:23.859Z,36.20
2019-06-01T07:21:55.000Z,36.10
2019-06-01T07:24:26.166Z,36.40
2019-06-01T07:26:57.333Z,35.60
2019-06-01T07:29:28.528Z,36.20
2019-06-01T07:31:59.661Z,36.90
2019-06-01T07:34:40.227Z,37.50
2019-06-01T07:37:04.799Z,37.80
2019-06-01T07:39:35.974Z,37.40
2019-06-01T07:42:07.289Z,37.40
2019-06-01T07:44:38.429Z,37.40
2019-06-01T07:47:09.642Z,37.60
2019-06-01T07:49:40.800Z,37.20
2019-06-01T07:52:13.437Z,37.30
2019-06-01T07:54:44.991Z,37.10
2019-06-01T07:57:16.199Z,37.40
2019-06-01T07:59:47.425Z,36.90
2019-06-01T08:02:18.618Z,36.40
2019-06-01T08:04:54.066Z,36.80
2019-06-01T08:07:23.360Z,37.20
2019-06-01T08:09:55.596Z,37.40
2019-06-01T08:12:27.513Z,37.20
2019-06-01T08:14:58.713Z,36.90
2019-06-01T08:17:30.151Z,36.30
2019-06-01T08:20:01.380Z,36.50
2019-06-01T08:22:32.611Z,36.50
2019-06-01T08:25:03.848Z,36.20
2019-06-01T08:27:35.033Z,36.40
2019-06-01T08:30:06.962Z,36.70
2019-06-01T08:32:38.223Z,36.30
2019-06-01T08:35:09.788Z,36.30
2019-06-01T08:37:41.324Z,36.90
2019-06-01T08:40:13.154Z,36.70
2019-06-01T08:42:44.412Z,36.50
2019-06-01T08:45:16.573Z,37.00
2019-06-01T08:47:49.004Z,37.60
2019-06-01T08:50:20.330Z,37.90
2019-06-01T08:52:51.576Z,38.50
2019-06-01T08:55:24.084Z,38.90
2019-06-01T08:57:55.701Z,39.20
2019-06-01T09:00:26.946Z,39.20
2019-06-01T09:02:58.635Z,38.80
2019-06-01T09:05:30.461Z,38.70
2019-06-01T09:08:02.652Z,38.60
2019-06-01T09:10:35.428Z,38.90
2019-06-01T09:13:06.799Z,39.00
2019-06-01T09:15:38.005Z,38.10
2019-06-01T09:18:09.165Z,38.50
2019-06-01T09:20:40.333Z,38.90
2019-06-01T09:23:11.581Z,38.40
2019-06-01T09:25:42.758Z,37.70
2019-06-01T09:28:13.974Z,37.00
2019-06-01T09:30:45.963Z,36.90
2019-06-01T09:33:17.193Z,37.20
2019-06-01T09:35:56.045Z,37.40
2019-06-01T09:38:21.527Z,37.90
2019-06-01T09:40:53.786Z,38.00
2019-06-01T09:43:26.467Z,37.90
2019-06-01T09:45:57.775Z,37.50
2019-06-01T09:48:29.405Z,36.50
2019-06-01T09:51:00.641Z,35.50
2019-06-01T09:53:32.536Z,34.90
2019-06-01T09:56:04.831Z,34.50
2019-06-01T09:58:36.902Z,35.40
2019-06-01T10:01:08.197Z,35.30
2019-06-01T10:03:39.482Z,35.40
2019-06-01T10:06:14.025Z,34.90
2019-06-01T10:08:43.708Z,34.00
2019-06-01T10:11:14.887Z,34.70
2019-06-01T10:13:46.117Z,35.30
2019-06-01T10:16:17.567Z,35.20
2019-06-01T10:18:48.813Z,34.70
2019-06-01T10:21:19.985Z,35.30
2019-06-01T10:23:51.148Z,35.50
2019-06-01T10:26:22.364Z,35.00
2019-06-01T10:28:53.555Z,34.80
2019-06-01T10:31:24.727Z,34.60
2019-06-01T10:33:55.895Z,34.00
2019-06-01T10:36:27.088Z,34.00
2019-06-01T10:38:58.305Z,33.10
2019-06-01T10:41:29.506Z,32.90
2019-06-01T10:44:00.725Z,32.50
2019-06-01T10:46:31.969Z,33.00
2019-06-01T10:49:03.123Z,33.20
2019-06-01T10:51:34.317Z,33.70
2019-06-01T10:54:05.504Z,34.50
2019-06-01T10:56:36.689Z,34.80
2019-06-01T10:59:07.853Z,34.30
2019-06-01T11:01:39.103Z,34.20
2019-06-01T11:04:10.293Z,33.70
2019-06-01T11:06:46.479Z,33.40
2019-06-01T11:09:14.460Z,32.60
2019-06-01T11:11:45.651Z,32.10
2019-06-01T11:14:16.811Z,31.70
2019-06-01T11:16:52.705Z,30.90
2019-06-01T11:19:20.872Z,30.40
2019-06-01T11:21:52.100Z,30.50
2019-06-01T11:24:23.301Z,30.30
2019-06-01T11:26:54.503Z,30.00
2019-06-01T11:29:25.666Z,29.20
2019-06-01T11:31:56.868Z,29.00
2019-06-01T11:34:28.140Z,28.80
2019-06-01T11:37:05.309Z,29.10
2019-06-01T11:39:34.270Z,29.20
2019-06-01T11:42:05.700Z,29.00
2019-06-01T11:44:36.923Z,29.00
2019-06-01T11:47:08.124Z,28.30
2019-06-01T11:49:39.301Z,28.60
2019-06-01T11:52:10.498Z,28.90
2019-06-01T11:54:41.655Z,29.30
2019-06-01T11:57:12.927Z,28.70
2019-06-01T11:59:45.702Z,28.70
2019-06-01T12:02:16.991Z,29.00
2019-06-01T12:04:48.154Z,29.10
2019-06-01T12:07:19.340Z,29.10
2019-06-01T12:09:50.524Z,29.40
2019-06-01T12:12:21.710Z,29.20
2019-06-01T12:14:52.870Z,28.90
2019-06-01T12:17:24.025Z,29.20
2019-06-01T12:19:55.197Z,29.30
2019-06-01T12:22:26.360Z,29.20
2019-06-01T12:24:57.641Z,29.20
2019-06-01T12:27:28.808Z,28.90
2019-06-01T12:29:59.996Z,29.10
2019-06-01T12:32:31.153Z,29.30
2019-06-01T12:35:03.460Z,29.20
2019-06-01T12:37:54.938Z,28.90
2019-06-01T12:40:08.110Z,28.90
2019-06-01T12:42:39.786Z,29.10
2019-06-01T12:45:21.676Z,29.40
2019-06-01T12:47:57.532Z,29.30
2019-06-01T12:50:23.549Z,29.20
2019-06-01T12:52:54.740Z,29.20
2019-06-01T12:55:25.945Z,29.20
2019-06-01T12:57:57.112Z,29.10
2019-06-01T13:00:28.635Z,29.20
2019-06-01T13:03:07.118Z,29.30
2019-06-01T13:05:32.870Z,29.60
2019-06-01T13:08:04.084Z,29.30
2019-06-01T13:10:35.278Z,29.30
2019-06-01T13:13:06.428Z,29.20
2019-06-01T13:15:37.623Z,29.10
2019-06-01T13:18:08.788Z,28.80
2019-06-01T13:20:41.358Z,29.10
2019-06-01T13:23:13.785Z,29.50
2019-06-01T13:25:45.629Z,29.40
2019-06-01T13:28:16.846Z,29.40
2019-06-01T13:30:49.684Z,29.60
2019-06-01T13:33:20.969Z,29.80
2019-06-01T13:35:52.625Z,29.50
2019-06-01T13:38:24.937Z,29.40
2019-06-01T13:40:56.224Z,29.50
2019-06-01T13:43:27.393Z,29.40
2019-06-01T13:45:58.570Z,29.50
2019-06-01T13:48:29.741Z,29.60
2019-06-01T13:51:00.914Z,29.70
2019-06-01T13:53:32.053Z,29.90
2019-06-01T13:56:03.248Z,30.00
2019-06-01T13:58:34.396Z,29.70
2019-06-01T14:01:06.707Z,29.80
2019-06-01T14:03:37.884Z,29.60
2019-06-01T14:06:09.078Z,29.70
2019-06-01T14:08:40.299Z,29.80
2019-06-01T14:11:11.645Z,30.00
2019-06-01T14:13:42.867Z,30.40
2019-06-01T14:16:14.062Z,30.40
2019-06-01T14:18:45.660Z,30.30
2019-06-01T14:21:16.822Z,30.20
2019-06-01T14:23:48.015Z,30.30
2019-06-01T14:26:19.292Z,30.30
2019-06-01T14:28:50.472Z,29.90
2019-06-01T14:31:23.033Z,29.80
2019-06-01T14:33:54.869Z,30.00
2019-06-01T14:36:26.198Z,30.30
2019-06-01T14:38:58.858Z,29.90
2019-06-01T14:41:30.152Z,29.30
2019-06-01T14:44:01.339Z,29.40
2019-06-01T14:46:32.569Z,29.80
2019-06-01T14:49:03.733Z,29.80
2019-06-01T14:51:34.985Z,29.90
2019-06-01T14:54:06.271Z,30.00
2019-06-01T14:56:37.455Z,30.20
2019-06-01T14:59:08.607Z,30.30
2019-06-01T15:01:39.924Z,30.00
2019-06-01T15:04:11.077Z,29.70
2019-06-01T15:06:42.263Z,29.80
2019-06-01T15:09:19.088Z,29.80
2019-06-01T15:11:48.731Z,29.70
2019-06-01T15:14:19.953Z,29.90
2019-06-01T15:16:51.685Z,30.10
2019-06-01T15:19:23.083Z,30.20
2019-06-01T15:21:54.279Z,29.80
2019-06-01T15:24:25.489Z,29.80
2019-06-01T15:26:56.902Z,29.70
2019-06-01T15:29:28.108Z,29.70
2019-06-01T15:32:00.145Z,29.90
2019-06-01T15:34:31.465Z,29.90
2019-06-01T15:37:02.646Z,30.00
2019-06-01T15:39:33.821Z,30.00
2019-06-01T15:42:04.993Z,29.90
2019-06-01T15:44:36.157Z,29.90
2019-06-01T15:47:07.813Z,29.90
2019-06-01T15:49:39.029Z,29.90
2019-06-01T15:52:10.309Z,29.80
2019-06-01T15:54:41.462Z,29.70
2019-06-01T15:57:12.722Z,29.80
2019-06-01T15:59:43.980Z,29.50
2019-06-01T16:02:15.182Z,29.50
2019-06-01T16:04:46.395Z,29.60
2019-06-01T16:07:19.139Z,29.60
2019-06-01T16:09:51.388Z,29.60
2019-06-01T16:12:22.813Z,29.60
2019-06-01T16:14:54.024Z,29.60
2019-06-01T16:17:25.294Z,29.60
2019-06-01T16:19:57.836Z,29.80
2019-06-01T16:22:29.124Z,29.90
2019-06-01T16:25:00.381Z,29.80
2019-06-01T16:27:32.717Z,29.50
2019-06-01T16:30:05.616Z,29.30
2019-06-01T16:32:39.589Z,29.30
2019-06-01T16:35:10.785Z,29.20
2019-06-01T16:37:42.088Z,29.00
2019-06-01T16:40:13.246Z,29.20
2019-06-01T16:42:44.418Z,29.20
2019-06-01T16:45:15.712Z,29.20
2019-06-01T16:47:47.036Z,29.20
2019-06-01T16:50:18.269Z,29.10
2019-06-01T16:52:49.451Z,28.80
2019-06-01T16:55:20.704Z,28.60
2019-06-01T16:57:51.980Z,28.70
2019-06-01T17:00:23.113Z,28.70
2019-06-01T17:02:54.543Z,28.80
2019-06-01T17:05:25.884Z,28.80
2019-06-01T17:07:57.095Z,28.80
2019-06-01T17:10:28.258Z,28.90
2019-06-01T17:13:00.181Z,29.00
2019-06-01T17:15:32.319Z,28.90
2019-06-01T17:18:07.023Z,28.90
2019-06-01T17:20:47.988Z,28.90
2019-06-01T17:23:26.747Z,29.00
2019-06-01T17:25:52.904Z,29.00
2019-06-01T17:28:25.308Z,29.00
2019-06-01T17:30:56.468Z,28.90
2019-06-01T17:33:27.665Z,28.80
2019-06-01T17:35:58.885Z,28.80
2019-06-01T17:38:30.084Z,28.70
2019-06-01T17:41:02.199Z,28.70
2019-06-01T17:43:33.463Z,28.60
2019-06-01T17:46:05.298Z,28.50
2019-06-01T17:48:36.705Z,28.40
2019-06-01T17:51:08.604Z,28.30
2019-06-01T17:53:39.806Z,28.30
2019-06-01T17:56:12.158Z,28.20
2019-06-01T17:58:43.439Z,28.00
2019-06-01T18:01:14.643Z,27.90
2019-06-01T18:03:45.819Z,27.80
2019-06-01T18:06:17.047Z,27.80
2019-06-01T18:08:48.287Z,27.70
2019-06-01T18:11:19.611Z,27.60
2019-06-01T18:13:50.865Z,27.60
2019-06-01T18:16:22.037Z,27.60
2019-06-01T18:18:54.281Z,27.50
2019-06-01T18:21:25.482Z,27.50
2019-06-01T18:23:56.710Z,27.40
2019-06-01T18:26:27.921Z,27.30
2019-06-01T18:28:59.162Z,27.30
2019-06-01T18:31:30.434Z,27.20
2019-06-01T18:34:02.998Z,27.10
2019-06-01T18:36:34.442Z,27.10
2019-06-01T18:39:07.654Z,27.00
2019-06-01T18:41:38.847Z,26.70
2019-06-01T18:44:10.024Z,26.70
2019-06-01T18:46:41.192Z,26.50
2019-06-01T18:49:12.406Z,26.40
2019-06-01T18:51:43.632Z,26.20
2019-06-01T18:54:15.159Z,26.10
2019-06-01T18:56:46.439Z,25.90
2019-06-01T18:59:17.665Z,25.60
2019-06-01T19:01:48.837Z,25.50
2019-06-01T19:04:20.027Z,25.40
2019-06-01T19:06:51.302Z,25.20
2019-06-01T19:09:22.466Z,25.10
2019-06-01T19:11:53.720Z,24.90
2019-06-01T19:14:24.876Z,24.80
2019-06-01T19:16:56.054Z,24.70
2019-06-01T19:19:31.075Z,24.50
2019-06-01T19:22:02.462Z,24.30
2019-06-01T19:24:33.704Z,24.10
2019-06-01T19:27:04.893Z,24.00
2019-06-01T19:29:36.349Z,23.80
2019-06-01T19:32:08.701Z,23.70
2019-06-01T19:34:39.971Z,23.70
2019-06-01T19:37:11.231Z,23.50
2019-06-01T19:39:42.482Z,23.40
2019-06-01T19:42:13.697Z,23.30
2019-06-01T19:44:44.935Z,23.10
2019-06-01T19:47:16.164Z,22.90
2019-06-01T19:49:47.316Z,22.80
2019-06-01T19:52:19.019Z,22.70
2019-06-01T19:54:50.224Z,22.50
2019-06-01T19:57:23.512Z,22.50
2019-06-01T19:59:54.253Z,22.30
2019-06-01T20:02:33.693Z,22.20
2019-06-01T20:05:02.500Z,22.10
2019-06-01T20:07:34.995Z,22.00
2019-06-01T20:10:06.687Z,21.90
2019-06-01T20:12:38.053Z,21.70
2019-06-01T20:15:11.198Z,21.60
2019-06-01T20:17:42.545Z,21.60
2019-06-01T20:20:14.770Z,21.50
2019-06-01T20:22:46.185Z,21.50
2019-06-01T20:25:17.619Z,21.40
2019-06-01T20:27:48.923Z,21.30
2019-06-01T20:30:22.191Z,21.20
2019-06-01T20:32:53.992Z,21.10
2019-06-01T20:35:25.161Z,21.00
2019-06-01T20:37:56.425Z,20.90
2019-06-01T20:40:27.699Z,20.70
2019-06-01T20:42:58.993Z,20.60
2019-06-01T20:45:30.331Z,20.60
2019-06-01T20:48:01.682Z,20.50
2019-06-01T20:50:32.834Z,20.40
2019-06-01T20:53:04.191Z,20.30
2019-06-01T20:55:35.348Z,20.30
2019-06-01T20:58:06.614Z,20.20
2019-06-01T21:00:37.865Z,20.10
2019-06-01T21:03:09.233Z,20.10
2019-06-01T21:05:40.534Z,20.00
2019-06-01T21:08:14.030Z,20.00
2019-06-01T21:10:45.407Z,19.90
2019-06-01T21:13:18.081Z,19.80
2019-06-01T21:15:49.442Z,19.70
2019-06-01T21:18:21.097Z,19.60
2019-06-01T21:20:56.305Z,19.50
2019-06-01T21:23:28.068Z,19.50
2019-06-01T21:25:59.292Z,19.40
2019-06-01T21:28:30.708Z,19.40
2019-06-01T21:31:01.929Z,19.30
2019-06-01T21:33:33.204Z,19.30
2019-06-01T21:36:04.429Z,19.20
2019-06-01T21:38:38.259Z,19.10
2019-06-01T21:41:08.769Z,19.10
2019-06-01T21:43:39.987Z,19.00
2019-06-01T21:46:11.216Z,19.00
2019-06-01T21:48:42.382Z,18.90
2019-06-01T21:51:13.571Z,18.90
2019-06-01T21:53:46.026Z,18.80
2019-06-01T21:56:19.924Z,18.70
2019-06-01T21:58:50.061Z,18.70
2019-06-01T22:01:22.606Z,18.70
2019-06-01T22:03:55.091Z,18.70
2019-06-01T22:06:27.682Z,18.70
2019-06-01T22:08:59.008Z,18.70
2019-06-01T22:11:30.242Z,18.60
2019-06-01T22:14:01.540Z,18.60
2019-06-01T22:16:33.934Z,18.60
2019-06-01T22:19:05.583Z,18.60
2019-06-01T22:21:36.784Z,18.60
2019-06-01T22:24:07.953Z,18.50
2019-06-01T22:26:39.144Z,18.50
2019-06-01T22:29:10.321Z,18.50
2019-06-01T22:31:41.520Z,18.40
2019-06-01T22:34:12.780Z,18.30
2019-06-01T22:36:43.966Z,18.20
2019-06-01T22:39:19.378Z,18.10
2019-06-01T22:41:51.818Z,18.00
2019-06-01T22:44:24.066Z,17.90
2019-06-01T22:46:55.270Z,17.80
2019-06-01T22:49:26.859Z,17.70
2019-06-01T22:51:58.196Z,17.60
2019-06-01T22:54:29.472Z,17.50
2019-06-01T22:57:00.692Z,17.50
2019-06-01T22:59:32.860Z,17.60
2019-06-01T23:02:04.472Z,17.70
2019-06-01T23:04:35.644Z,17.60
2019-06-01T23:07:06.810Z,17.60
2019-06-01T23:09:37.988Z,17.60
2019-06-01T23:12:09.176Z,17.50
2019-06-01T23:14:40.365Z,17.40
2019-06-01T23:17:11.515Z,17.30
2019-06-01T23:19:42.714Z,17.20
2019-06-01T23:22:13.865Z,17.10
2019-06-01T23:24:45.044Z,17.10
2019-06-01T23:27:16.210Z,17.00
2019-06-01T23:29:47.436Z,17.00
2019-06-01T23:32:18.652Z,17.00
2019-06-01T23:34:49.857Z,17.00
2019-06-01T23:37:22.577Z,17.10
2019-06-01T23:39:54.005Z,17.10
2019-06-01T23:42:25.197Z,17.00
2019-06-01T23:44:56.423Z,16.80
2019-06-01T23:47:27.588Z,16.70
2019-06-01T23:49:58.763Z,16.60
2019-06-01T23:52:29.895Z,16.60
2019-06-01T23:55:01.087Z,16.60
2019-06-01T23:57:32.285Z,16.50
